Time;durP1;ratioP1;P1;durP2;ratioP2;P2;SDS_P1;SDS_P2;PMS_P1;PMS_P2;Temp;Humidity;BMP_temperature;BMP_pressure;BME280_temperature;BME280_humidity;BME280_pressure;Samples;Min_cycle;Max_cycle;Signal;HPM_P1;HPM_P2
2021/07/14 00:00:49;;;;;;;6.30;1.65;;;18.70;77.40;;;;;;5187223;27;27481;-58
2021/07/14 00:03:37;;;;;;;3.17;1.35;;;18.60;77.50;;;;;;5168435;27;27373;-59
2021/07/14 00:06:24;;;;;;;6.60;1.40;;;18.60;77.50;;;;;;5186321;27;27321;-59
2021/07/14 00:09:11;;;;;;;5.70;1.45;;;18.60;77.40;;;;;;5187016;27;27954;-59
2021/07/14 00:12:00;;;;;;;4.05;1.35;;;18.60;77.50;;;;;;5188827;27;27421;-58
2021/07/14 00:15:04;;;;;;;5.28;1.30;;;18.60;77.50;;;;;;5186611;27;27322;-60
2021/07/14 00:24:18;;;;;;;8.85;1.50;;;18.50;77.50;;;;;;5152702;27;27447;-59
2021/07/14 00:27:10;;;;;;;15.25;1.95;;;18.50;77.60;;;;;;5185912;27;27447;-59
2021/07/14 00:29:59;;;;;;;8.80;1.60;;;18.50;77.50;;;;;;5190218;27;27504;-59
2021/07/14 00:32:45;;;;;;;3.40;1.60;;;18.50;77.60;;;;;;5189988;27;27481;-58
2021/07/14 00:35:32;;;;;;;5.25;1.40;;;18.40;77.60;;;;;;5190148;27;27413;-59
2021/07/14 00:38:18;;;;;;;3.80;1.77;;;18.50;78.50;;;;;;5189314;27;27411;-58
2021/07/14 00:41:06;;;;;;;1.70;1.45;;;18.40;77.80;;;;;;5190294;27;27372;-58
2021/07/14 00:43:53;;;;;;;7.53;1.48;;;18.40;77.80;;;;;;5174654;27;27456;-58
2021/07/14 00:46:40;;;;;;;9.88;1.55;;;18.40;77.80;;;;;;5188866;27;27438;-58
2021/07/14 00:49:27;;;;;;;3.25;1.67;;;18.40;77.90;;;;;;5189830;27;27369;-59
2021/07/14 00:52:14;;;;;;;3.38;1.65;;;18.40;77.70;;;;;;5189763;27;27360;-60
2021/07/14 00:55:01;;;;;;;6.00;1.70;;;18.30;77.80;;;;;;5189177;27;27855;-58
2021/07/14 00:57:49;;;;;;;2.95;1.30;;;18.30;77.80;;;;;;5188923;27;27474;-59
2021/07/14 01:00:36;;;;;;;7.15;1.58;;;18.30;77.70;;;;;;5188416;27;27420;-58
2021/07/14 01:03:24;;;;;;;4.78;2.10;;;18.30;77.40;;;;;;5186555;27;27326;-59
2021/07/14 01:06:14;;;;;;;5.78;1.73;;;18.30;77.30;;;;;;5170752;27;28035;-60
2021/07/14 01:09:03;;;;;;;4.88;1.98;;;18.30;77.10;;;;;;5189700;27;27513;-60
2021/07/14 01:11:49;;;;;;;3.30;2.40;;;18.20;77.20;;;;;;5188805;27;27438;-58
2021/07/14 01:14:50;;;;;;;6.70;2.20;;;18.20;77.10;;;;;;5188626;27;27496;-58
2021/07/14 01:17:46;;;;;;;6.05;1.70;;;18.20;76.90;;;;;;5188467;27;27838;-59
2021/07/14 01:20:42;;;;;;;2.13;1.65;;;18.20;76.90;;;;;;5174878;27;27391;-58
2021/07/14 01:24:01;;;;;;;4.32;2.00;;;18.20;76.50;;;;;;5169358;27;27355;-58
2021/07/14 01:27:13;;;;;;;3.85;1.77;;;18.10;76.70;;;;;;5186225;27;27421;-58
2021/07/14 01:30:01;;;;;;;7.30;2.05;;;18.10;76.80;;;;;;5189381;27;27331;-58
2021/07/14 01:32:47;;;;;;;3.25;1.60;;;18.10;76.90;;;;;;5188625;27;27638;-58
2021/07/14 01:35:35;;;;;;;2.85;1.67;;;18.10;76.90;;;;;;5189138;27;27462;-58
2021/07/14 01:38:23;;;;;;;7.72;2.03;;;18.00;76.90;;;;;;5189035;27;27322;-59
2021/07/14 01:41:09;;;;;;;2.47;1.58;;;18.00;76.90;;;;;;5189260;27;27334;-58
2021/07/14 01:43:58;;;;;;;5.45;2.08;;;18.00;77.30;;;;;;5188383;27;27432;-58
2021/07/14 01:46:45;;;;;;;6.72;1.67;;;18.00;77.60;;;;;;5185501;27;27451;-58
2021/07/14 01:49:35;;;;;;;2.55;1.63;;;18.00;77.80;;;;;;5188163;27;27389;-60
2021/07/14 01:52:24;;;;;;;6.20;1.83;;;18.00;78.00;;;;;;5188214;27;27499;-59
2021/07/14 01:55:12;;;;;;;5.57;2.20;;;18.00;78.30;;;;;;5171104;27;27505;-57
2021/07/14 01:57:59;;;;;;;5.80;1.58;;;18.00;78.70;;;;;;5188305;27;27342;-58
2021/07/14 02:00:51;;;;;;;4.63;1.50;;;18.00;78.80;;;;;;5185472;27;27387;-58
2021/07/14 02:03:42;;;;;;;3.53;1.70;;;18.00;78.70;;;;;;5188026;27;28007;-59
2021/07/14 02:06:29;;;;;;;4.35;1.50;;;17.90;78.80;;;;;;5187609;27;27474;-58
2021/07/14 02:09:16;;;;;;;8.77;1.40;;;17.90;78.80;;;;;;5188773;27;27478;-58
2021/07/14 02:12:04;;;;;;;3.88;1.75;;;18.00;78.90;;;;;;5187683;27;27412;-58
2021/07/14 02:14:56;;;;;;;7.68;1.60;;;18.00;79.00;;;;;;5169311;27;27393;-58
2021/07/14 02:18:03;;;;;;;2.08;1.58;;;17.90;78.90;;;;;;5169466;27;27323;-60
2021/07/14 02:20:49;;;;;;;5.97;1.60;;;17.90;78.80;;;;;;5169438;27;27363;-59
2021/07/14 02:23:36;;;;;;;2.60;1.45;;;17.90;78.70;;;;;;5188037;27;27339;-59
2021/07/14 02:26:23;;;;;;;6.60;1.50;;;17.90;78.60;;;;;;5184945;27;27454;-58
2021/07/14 02:29:10;;;;;;;6.20;1.63;;;17.90;78.60;;;;;;5184912;27;27470;-58
2021/07/14 02:32:01;;;;;;;13.40;1.63;;;17.90;78.40;;;;;;5187410;27;27413;-59
2021/07/14 02:34:48;;;;;;;4.15;1.70;;;17.90;78.40;;;;;;5188255;27;27458;-58
2021/07/14 02:37:58;;;;;;;4.38;1.33;;;17.90;78.40;;;;;;5172708;27;27490;-58
2021/07/14 02:41:11;;;;;;;3.28;1.40;;;17.90;78.10;;;;;;5187445;27;27493;-59
2021/07/14 02:44:01;;;;;;;8.27;1.73;;;17.80;77.80;;;;;;5187906;27;27372;-58
2021/07/14 02:46:49;;;;;;;5.25;1.50;;;17.80;77.80;;;;;;5187729;27;27428;-58
2021/07/14 02:49:40;;;;;;;3.17;1.42;;;17.80;77.70;;;;;;5187390;27;27979;-58
2021/07/14 02:52:28;;;;;;;3.67;1.88;;;17.80;77.70;;;;;;5187041;27;27441;-59
2021/07/14 02:55:17;;;;;;;2.00;1.27;;;17.80;77.60;;;;;;5187710;27;27467;-59
2021/07/14 02:58:04;;;;;;;2.80;1.58;;;17.80;77.40;;;;;;5185429;27;27438;-57
2021/07/14 03:00:51;;;;;;;3.47;1.15;;;17.70;77.60;;;;;;5187319;27;27401;-60
2021/07/14 03:03:38;;;;;;;3.22;1.55;;;17.70;77.50;;;;;;5172924;27;27475;-59
2021/07/14 03:06:24;;;;;;;5.53;1.58;;;17.70;77.40;;;;;;5188273;27;27409;-58
2021/07/14 03:09:11;;;;;;;4.90;1.40;;;17.70;77.60;;;;;;5188211;27;27380;-58
2021/07/14 03:11:58;;;;;;;3.03;1.42;;;17.70;77.90;;;;;;5187456;27;27392;-57
2021/07/14 03:14:55;;;;;;;2.10;1.45;;;17.70;78.10;;;;;;5188121;27;27406;-58
2021/07/14 03:17:42;;;;;;;5.82;1.65;;;17.70;78.40;;;;;;5186862;27;27438;-58
2021/07/14 03:20:29;;;;;;;5.10;1.52;;;17.70;78.50;;;;;;5187774;27;27417;-58
2021/07/14 03:23:16;;;;;;;6.93;1.77;;;17.70;79.00;;;;;;5187189;27;27479;-59
2021/07/14 03:26:02;;;;;;;4.53;1.15;;;17.70;79.00;;;;;;5187947;27;27363;-58
2021/07/14 03:28:50;;;;;;;4.85;2.05;;;17.70;79.00;;;;;;5172513;27;26885;-58
2021/07/14 03:31:37;;;;;;;4.07;1.40;;;17.60;78.90;;;;;;5187938;27;27474;-58
2021/07/14 03:34:25;;;;;;;9.43;1.50;;;17.70;79.20;;;;;;5187577;27;27466;-58
2021/07/14 03:37:11;;;;;;;6.28;1.85;;;17.70;79.40;;;;;;5187882;27;27531;-59
2021/07/14 03:39:58;;;;;;;6.00;1.67;;;17.70;79.50;;;;;;5187671;27;27371;-58
2021/07/14 03:42:47;;;;;;;3.05;1.80;;;17.60;79.40;;;;;;5184435;27;27367;-60
2021/07/14 03:45:34;;;;;;;9.57;1.92;;;17.60;79.50;;;;;;5186915;27;27417;-59
2021/07/14 03:48:21;;;;;;;5.82;2.33;;;17.60;79.60;;;;;;5190058;27;27494;-58
2021/07/14 03:51:07;;;;;;;3.45;1.95;;;17.60;79.70;;;;;;5191265;27;27386;-58
2021/07/14 03:53:54;;;;;;;3.72;2.10;;;17.60;79.80;;;;;;5187346;27;26856;-59
2021/07/14 03:56:42;;;;;;;6.53;2.25;;;17.60;79.90;;;;;;5186788;27;27666;-59
2021/07/14 03:59:30;;;;;;;6.32;2.35;;;17.60;80.10;;;;;;5190414;27;27503;-58
2021/07/14 04:02:17;;;;;;;3.22;1.80;;;17.60;80.20;;;;;;5191385;27;27327;-60
2021/07/14 04:05:06;;;;;;;6.38;3.33;;;17.60;80.20;;;;;;5191271;27;26853;-58
2021/07/14 04:07:53;;;;;;;9.40;2.50;;;17.60;80.40;;;;;;5190557;27;27497;-58
2021/07/14 04:10:40;;;;;;;7.55;3.10;;;17.70;80.40;;;;;;5190809;27;27394;-61
2021/07/14 04:13:27;;;;;;;4.95;2.38;;;17.60;80.30;;;;;;5189556;27;27333;-60
2021/07/14 04:16:14;;;;;;;4.57;2.28;;;17.60;80.70;;;;;;5191057;27;27392;-58
2021/07/14 04:19:02;;;;;;;5.43;2.53;;;17.70;80.70;;;;;;5190657;27;27934;-58
2021/07/14 04:21:49;;;;;;;6.65;2.30;;;17.60;80.70;;;;;;5190918;27;27425;-61
2021/07/14 04:24:36;;;;;;;6.72;1.90;;;17.70;80.80;;;;;;5189887;27;27500;-59
2021/07/14 04:27:22;;;;;;;4.32;2.47;;;17.70;80.90;;;;;;5175122;27;27377;-59
2021/07/14 04:30:10;;;;;;;4.68;2.45;;;17.70;80.90;;;;;;5190497;27;27390;-60
2021/07/14 04:32:58;;;;;;;5.32;2.17;;;17.70;81.10;;;;;;5189674;27;27455;-58
2021/07/14 04:35:45;;;;;;;5.82;2.30;;;17.70;81.00;;;;;;5190099;27;27485;-58
2021/07/14 04:38:31;;;;;;;5.97;2.55;;;17.70;81.10;;;;;;5190172;27;27458;-58
2021/07/14 04:41:18;;;;;;;8.63;2.40;;;17.70;81.30;;;;;;5189774;27;27910;-58
2021/07/14 04:44:07;;;;;;;4.97;2.20;;;17.70;82.00;;;;;;5189579;27;27395;-58
2021/07/14 04:46:54;;;;;;;5.35;2.35;;;17.70;81.20;;;;;;5190419;27;27453;-58
2021/07/14 04:49:41;;;;;;;4.55;2.22;;;17.70;81.50;;;;;;5186350;27;27422;-58
2021/07/14 04:52:29;;;;;;;5.03;2.20;;;17.70;81.60;;;;;;5189657;27;27958;-59
2021/07/14 04:55:16;;;;;;;7.25;2.28;;;17.70;81.80;;;;;;5185964;27;27399;-58
2021/07/14 04:58:03;;;;;;;4.82;2.10;;;17.70;81.80;;;;;;5188058;27;27413;-59
2021/07/14 05:00:50;;;;;;;8.15;2.45;;;17.70;81.90;;;;;;5189286;27;27382;-59
2021/07/14 05:03:38;;;;;;;12.55;3.03;;;17.70;82.10;;;;;;5190202;27;28113;-59
2021/07/14 05:06:25;;;;;;;3.50;2.65;;;17.70;82.10;;;;;;5189500;27;27373;-58
2021/07/14 05:09:12;;;;;;;4.97;3.05;;;17.70;82.10;;;;;;5189456;27;27428;-58
2021/07/14 05:12:00;;;;;;;5.60;2.67;;;17.70;82.30;;;;;;5190113;27;27406;-58
2021/07/14 05:14:47;;;;;;;4.50;2.70;;;17.70;82.30;;;;;;5190037;27;27346;-58
2021/07/14 05:17:34;;;;;;;5.95;3.15;;;17.80;82.80;;;;;;5189277;27;27530;-59
2021/07/14 05:20:21;;;;;;;6.13;2.78;;;17.80;82.90;;;;;;5171335;27;27384;-59
2021/07/14 05:23:08;;;;;;;4.72;3.60;;;17.80;83.10;;;;;;5189162;27;26863;-58
2021/07/14 05:25:55;;;;;;;4.35;3.22;;;17.80;83.20;;;;;;5188829;27;27405;-58
2021/07/14 05:28:41;;;;;;;7.72;3.53;;;17.80;83.40;;;;;;5188744;27;27418;-58
2021/07/14 05:31:28;;;;;;;5.70;3.10;;;17.80;83.50;;;;;;5189683;27;27313;-59
2021/07/14 05:34:15;;;;;;;6.63;3.20;;;17.90;83.80;;;;;;5186407;27;27387;-59
2021/07/14 05:37:02;;;;;;;7.03;3.50;;;17.90;83.90;;;;;;5189733;27;27495;-60
2021/07/14 05:39:49;;;;;;;7.50;3.28;;;17.90;84.20;;;;;;5188620;27;27436;-58
2021/07/14 05:42:37;;;;;;;8.25;3.28;;;17.90;84.30;;;;;;5185350;27;27452;-58
2021/07/14 05:45:27;;;;;;;7.47;3.83;;;17.90;84.30;;;;;;5189379;27;27316;-58
2021/07/14 05:48:17;;;;;;;8.95;3.38;;;17.90;84.60;;;;;;5170704;27;27413;-59
2021/07/14 05:51:04;;;;;;;4.55;4.00;;;18.00;85.70;;;;;;5185723;27;27405;-58
2021/07/14 05:53:51;;;;;;;7.13;3.85;;;18.00;85.00;;;;;;5185342;27;27309;-58
2021/07/14 05:56:40;;;;;;;8.32;3.33;;;18.00;84.00;;;;;;5170037;27;27526;-59
2021/07/14 05:59:28;;;;;;;6.80;3.83;;;18.00;83.80;;;;;;5187731;27;27393;-59
2021/07/14 06:02:16;;;;;;;9.30;3.45;;;18.10;84.00;;;;;;5184837;27;27318;-58
2021/07/14 06:05:05;;;;;;;4.50;4.10;;;18.10;83.80;;;;;;5184847;27;27469;-60
2021/07/14 06:07:52;;;;;;;4.88;3.50;;;18.10;84.00;;;;;;5185520;27;27067;-58
2021/07/14 06:10:39;;;;;;;6.63;3.30;;;18.10;84.20;;;;;;5188845;27;27346;-58
2021/07/14 06:13:28;;;;;;;15.32;4.75;;;18.20;84.50;;;;;;5189081;27;27440;-60
2021/07/14 06:16:16;;;;;;;4.03;3.33;;;18.20;85.00;;;;;;5189084;27;27451;-58
2021/07/14 06:19:03;;;;;;;7.32;2.80;;;18.20;84.80;;;;;;5184926;27;27372;-58
2021/07/14 06:21:50;;;;;;;5.93;3.13;;;18.20;85.00;;;;;;5188921;27;27874;-58
2021/07/14 06:24:38;;;;;;;7.85;2.78;;;18.20;85.40;;;;;;5188985;27;27524;-59
2021/07/14 06:27:25;;;;;;;3.17;2.88;;;18.20;85.20;;;;;;5188194;27;27455;-59
2021/07/14 06:30:12;;;;;;;5.47;3.50;;;18.30;85.80;;;;;;5188575;27;27413;-59
2021/07/14 06:32:59;;;;;;;6.07;3.22;;;18.30;85.70;;;;;;5185392;27;27375;-58
2021/07/14 06:35:46;;;;;;;3.97;2.80;;;18.30;86.40;;;;;;5187994;27;27314;-59
2021/07/14 06:38:34;;;;;;;4.00;3.03;;;18.30;86.20;;;;;;5187970;27;27430;-58
2021/07/14 06:41:23;;;;;;;9.18;3.13;;;18.40;86.10;;;;;;5188404;27;27469;-58
2021/07/14 06:44:11;;;;;;;6.50;3.00;;;18.40;86.10;;;;;;5184420;27;27349;-60
2021/07/14 06:46:58;;;;;;;4.68;3.22;;;18.40;86.00;;;;;;5187370;27;27425;-59
2021/07/14 06:49:51;;;;;;;5.82;2.65;;;18.40;86.20;;;;;;5187661;27;27350;-59
2021/07/14 06:52:39;;;;;;;4.47;2.80;;;18.40;86.20;;;;;;5187804;27;27479;-59
2021/07/14 06:55:26;;;;;;;8.40;4.30;;;18.40;87.10;;;;;;5171870;27;27588;-59
2021/07/14 06:58:13;;;;;;;3.65;2.60;;;18.40;86.50;;;;;;5186896;27;27387;-59
2021/07/14 07:01:01;;;;;;;6.40;2.85;;;18.50;87.10;;;;;;5187399;27;27347;-59
2021/07/14 07:03:52;;;;;;;4.78;3.08;;;18.50;87.10;;;;;;5183874;27;27463;-58
2021/07/14 07:06:52;;;;;;;3.33;3.03;;;18.50;87.20;;;;;;5173049;27;27334;-58
2021/07/14 07:09:54;;;;;;;4.55;3.10;;;18.50;87.30;;;;;;5187904;27;27518;-58
2021/07/14 07:12:42;;;;;;;5.95;3.05;;;18.60;87.10;;;;;;5188278;27;27290;-58
2021/07/14 07:15:29;;;;;;;6.07;3.03;;;18.60;87.50;;;;;;5187935;27;27405;-58
2021/07/14 07:18:19;;;;;;;8.75;3.10;;;18.60;87.40;;;;;;5188177;27;27521;-59
2021/07/14 07:21:07;;;;;;;5.72;3.10;;;18.70;87.70;;;;;;5170790;27;27346;-60
2021/07/14 07:23:54;;;;;;;7.95;3.58;;;18.70;87.40;;;;;;5155186;27;27494;-59
2021/07/14 07:26:48;;;;;;;5.53;3.20;;;18.70;87.50;;;;;;5168921;27;27406;-59
2021/07/14 07:29:41;;;;;;;4.57;2.83;;;18.80;87.20;;;;;;5154760;27;27991;-58
2021/07/14 07:32:29;;;;;;;13.63;3.03;;;18.80;87.30;;;;;;5183547;27;27381;-58
2021/07/14 07:35:21;;;;;;;6.10;2.45;;;18.80;87.20;;;;;;5186996;27;27334;-59
2021/07/14 07:38:09;;;;;;;5.30;2.40;;;18.80;87.30;;;;;;5187209;27;27497;-59
2021/07/14 07:40:58;;;;;;;12.43;2.85;;;18.80;87.50;;;;;;5186912;27;27475;-58
2021/07/14 07:44:20;;;;;;;6.00;2.70;;;18.80;87.90;;;;;;5186819;27;27400;-60
2021/07/14 07:47:17;;;;;;;3.28;2.53;;;18.90;87.60;;;;;;5186322;27;27349;-59
2021/07/14 07:50:07;;;;;;;5.40;2.97;;;18.90;87.90;;;;;;5173519;27;27345;-60
2021/07/14 07:53:22;;;;;;;2.95;2.20;;;19.00;88.40;;;;;;5186720;27;27441;-60
2021/07/14 07:56:20;;;;;;;4.53;2.58;;;19.00;89.10;;;;;;5186648;27;27501;-59
2021/07/14 07:59:15;;;;;;;3.97;2.30;;;19.10;88.50;;;;;;5129966;27;27496;-58
2021/07/14 08:02:08;;;;;;;4.57;2.30;;;19.10;88.80;;;;;;5145342;27;27373;-59
2021/07/14 08:04:59;;;;;;;8.20;2.58;;;19.20;89.00;;;;;;5127069;27;27860;-59
2021/07/14 08:07:53;;;;;;;3.38;2.40;;;19.20;88.90;;;;;;5145298;27;27339;-59
2021/07/14 08:10:41;;;;;;;2.75;2.45;;;19.20;89.00;;;;;;5141515;27;27409;-59
2021/07/14 08:13:31;;;;;;;2.88;2.67;;;19.20;88.80;;;;;;5116067;27;27480;-59
2021/07/14 08:16:19;;;;;;;3.95;2.30;;;19.30;89.20;;;;;;5144163;27;27580;-59
2021/07/14 08:19:08;;;;;;;4.15;2.30;;;19.30;89.60;;;;;;5126990;27;27406;-58
2021/07/14 08:22:03;;;;;;;3.25;2.95;;;19.30;89.90;;;;;;5141352;27;27487;-60
2021/07/14 08:25:06;;;;;;;7.18;3.15;;;19.40;90.10;;;;;;5127035;27;27355;-59
2021/07/14 08:27:58;;;;;;;3.45;2.65;;;19.40;89.20;;;;;;5140735;27;27858;-60
2021/07/14 08:35:26;;;;;;;6.43;2.85;;;19.40;89.00;;;;;;5148303;27;27405;-59
2021/07/14 08:38:25;;;;;;;4.68;2.90;;;19.40;89.60;;;;;;5136764;27;27405;-59
2021/07/14 08:41:14;;;;;;;3.47;2.78;;;19.40;89.40;;;;;;5144529;27;27322;-59
2021/07/14 08:44:04;;;;;;;3.63;3.22;;;19.50;89.70;;;;;;5133593;27;27405;-59
2021/07/14 08:46:51;;;;;;;5.55;3.22;;;19.50;90.10;;;;;;5147782;27;27340;-59
2021/07/14 08:49:39;;;;;;;3.10;2.53;;;19.50;90.40;;;;;;5148574;27;27437;-59
2021/07/14 08:52:26;;;;;;;5.00;3.13;;;19.60;90.40;;;;;;5132984;27;27480;-60
2021/07/14 08:55:23;;;;;;;4.05;2.60;;;19.60;90.60;;;;;;5147764;27;27308;-62
2021/07/14 08:58:47;;;;;;;5.80;2.80;;;19.60;90.70;;;;;;5174970;27;27522;-60
2021/07/14 09:01:39;;;;;;;3.28;2.97;;;19.70;90.80;;;;;;5189654;27;27373;-60
2021/07/14 09:04:28;;;;;;;4.53;2.92;;;19.70;90.90;;;;;;5185851;27;27426;-60
2021/07/14 09:07:16;;;;;;;6.15;2.88;;;19.80;90.60;;;;;;5189166;27;27376;-59
2021/07/14 09:10:07;;;;;;;3.63;2.80;;;19.80;90.30;;;;;;5145432;27;27409;-59
2021/07/14 09:12:58;;;;;;;3.60;2.85;;;19.80;90.30;;;;;;5171326;27;27400;-59
2021/07/14 09:15:51;;;;;;;3.20;2.88;;;19.80;90.10;;;;;;5185942;27;27942;-61
2021/07/14 09:18:38;;;;;;;5.85;2.85;;;19.80;89.70;;;;;;5190028;27;27469;-61
2021/07/14 09:21:25;;;;;;;4.65;2.88;;;19.80;90.10;;;;;;5189402;27;27450;-60
2021/07/14 09:24:29;;;;;;;3.45;2.70;;;19.80;89.80;;;;;;5189706;27;27416;-59
2021/07/14 09:27:22;;;;;;;4.53;2.80;;;19.90;89.90;;;;;;5189509;27;27869;-59
2021/07/14 09:30:21;;;;;;;4.50;2.45;;;19.90;90.00;;;;;;5185469;27;27462;-59
2021/07/14 09:33:10;;;;;;;4.75;2.58;;;20.00;90.30;;;;;;5174588;27;27323;-59
2021/07/14 09:35:59;;;;;;;4.85;2.50;;;20.00;90.70;;;;;;5188353;27;27415;-59
2021/07/14 09:38:46;;;;;;;4.07;2.50;;;20.00;90.50;;;;;;5185266;27;27398;-59
2021/07/14 09:41:37;;;;;;;2.53;2.25;;;20.10;90.50;;;;;;5188897;27;27398;-59
2021/07/14 09:44:26;;;;;;;2.75;2.55;;;20.10;90.40;;;;;;5141878;27;27435;-60
2021/07/14 09:47:15;;;;;;;3.30;2.17;;;20.10;90.60;;;;;;5189227;27;27391;-59
2021/07/14 09:50:04;;;;;;;3.33;2.88;;;20.20;90.40;;;;;;5189193;27;28028;-59
2021/07/14 09:53:04;;;;;;;2.42;2.22;;;20.30;90.50;;;;;;5189396;27;27314;-61
2021/07/14 09:55:56;;;;;;;5.15;2.20;;;20.30;80.80;;;;;;5173725;27;27365;-60
2021/07/14 09:58:44;;;;;;;8.35;2.47;;;20.40;77.60;;;;;;5187634;27;27610;-60
2021/07/14 10:01:51;;;;;;;3.50;2.15;;;20.50;76.50;;;;;;5188511;27;27943;-61
2021/07/14 10:04:39;;;;;;;3.00;1.50;;;20.60;75.00;;;;;;5171456;27;27498;-60
2021/07/14 10:07:33;;;;;;;3.33;2.00;;;20.70;73.40;;;;;;5170845;27;27388;-61
2021/07/14 10:10:25;;;;;;;2.42;1.60;;;20.80;74.50;;;;;;5188545;27;27402;-63
2021/07/14 10:13:26;;;;;;;1.90;1.60;;;20.80;74.30;;;;;;5174417;27;27485;-61
2021/07/14 10:16:17;;;;;;;4.72;1.52;;;20.90;73.00;;;;;;5188303;27;27379;-61
2021/07/14 10:19:20;;;;;;;6.97;2.10;;;21.00;72.40;;;;;;5188828;27;27413;-60
2021/07/14 10:22:24;;;;;;;3.05;2.10;;;21.10;71.10;;;;;;5156121;27;27462;-61
2021/07/14 10:25:25;;;;;;;1.80;1.50;;;21.20;74.40;;;;;;5184755;27;27372;-64
2021/07/14 10:28:16;;;;;;;1.63;1.52;;;21.30;77.60;;;;;;5188468;27;27376;-60
2021/07/14 10:31:02;;;;;;;3.05;1.92;;;21.40;79.60;;;;;;5159747;27;27400;-65
2021/07/14 10:33:51;;;;;;;4.25;1.48;;;21.50;81.20;;;;;;5184742;27;27469;-61
2021/07/14 10:36:39;;;;;;;3.33;1.45;;;21.70;82.10;;;;;;5188026;27;27965;-61
2021/07/14 10:39:28;;;;;;;2.40;1.90;;;21.80;83.40;;;;;;5188450;27;27342;-61
2021/07/14 10:42:16;;;;;;;1.73;1.60;;;22.00;83.90;;;;;;5155928;27;27438;-61
2021/07/14 10:45:06;;;;;;;1.48;1.30;;;22.10;84.50;;;;;;5187660;27;27395;-60
2021/07/14 10:47:57;;;;;;;1.42;1.30;;;22.20;85.00;;;;;;5187638;27;27436;-63
2021/07/14 10:50:46;;;;;;;1.30;1.17;;;22.30;84.90;;;;;;5187625;27;27335;-60
2021/07/14 10:53:40;;;;;;;1.48;1.10;;;22.40;85.70;;;;;;5188439;27;27439;-61
2021/07/14 10:56:38;;;;;;;3.55;1.13;;;22.50;85.70;;;;;;5159128;27;27378;-62
2021/07/14 10:59:32;;;;;;;1.40;1.10;;;22.50;86.10;;;;;;5149389;27;27645;-60
2021/07/14 11:11:14;;;;;;;1.25;0.80;;;23.30;85.50;;;;;;5163441;27;27421;-62
2021/07/14 11:14:06;;;;;;;2.10;1.10;;;23.50;84.10;;;;;;5166843;27;27326;-60
2021/07/14 11:16:58;;;;;;;1.23;1.10;;;23.70;83.10;;;;;;5166724;27;27408;-62
2021/07/14 11:19:49;;;;;;;1.15;1.05;;;23.80;82.10;;;;;;5166300;27;27450;-60
2021/07/14 11:22:37;;;;;;;0.98;0.90;;;23.90;81.30;;;;;;5151469;27;27445;-61
2021/07/14 11:25:23;;;;;;;2.47;1.10;;;24.00;81.20;;;;;;5166713;27;27417;-62
2021/07/14 11:28:08;;;;;;;2.70;0.60;;;24.20;80.70;;;;;;5150960;27;27672;-60
2021/07/14 11:31:08;;;;;;;0.80;0.75;;;24.30;81.20;;;;;;5166667;27;27477;-61
2021/07/14 11:33:53;;;;;;;2.03;0.90;;;24.50;80.80;;;;;;5166136;27;27353;-61
2021/07/14 11:36:40;;;;;;;0.70;0.70;;;24.70;80.00;;;;;;5166541;27;27372;-62
2021/07/14 11:39:29;;;;;;;1.10;0.90;;;24.80;79.30;;;;;;5166813;27;27371;-61
2021/07/14 11:42:17;;;;;;;3.20;1.00;;;24.90;78.50;;;;;;5165781;27;27487;-63
2021/07/14 11:45:09;;;;;;;1.00;0.90;;;25.00;78.20;;;;;;5166487;27;27310;-61
2021/07/14 11:48:06;;;;;;;1.05;0.88;;;25.10;78.20;;;;;;5165499;27;27970;-61
2021/07/14 11:50:54;;;;;;;0.93;0.63;;;25.20;77.80;;;;;;5151424;27;27478;-60
2021/07/14 11:53:41;;;;;;;2.33;0.68;;;25.30;77.70;;;;;;5165887;27;27338;-60
2021/07/14 11:56:26;;;;;;;0.85;0.85;;;25.40;77.70;;;;;;5165873;27;26952;-61
2021/07/14 11:59:18;;;;;;;1.83;0.90;;;25.60;76.70;;;;;;5145580;27;27335;-61
2021/07/14 12:02:04;;;;;;;1.00;0.85;;;25.80;77.80;;;;;;5141417;27;27398;-61
2021/07/14 12:05:09;;;;;;;0.70;0.70;;;26.10;75.90;;;;;;5130493;27;27333;-62
2021/07/14 12:07:56;;;;;;;1.48;0.70;;;26.20;74.50;;;;;;5146900;27;27485;-61
2021/07/14 12:10:41;;;;;;;0.50;0.47;;;26.30;74.10;;;;;;5116111;27;27320;-61
2021/07/14 12:13:26;;;;;;;3.20;1.10;;;26.50;72.90;;;;;;5149296;27;27414;-61
2021/07/14 12:16:10;;;;;;;0.98;0.50;;;26.50;72.10;;;;;;5148313;27;27379;-61
2021/07/14 12:18:56;;;;;;;0.65;0.60;;;26.40;72.20;;;;;;5147996;27;27447;-61
2021/07/14 12:21:41;;;;;;;1.42;0.82;;;26.50;72.70;;;;;;5147880;27;27319;-61
2021/07/14 12:24:37;;;;;;;2.65;1.17;;;26.50;73.00;;;;;;5147922;27;27412;-61
2021/07/14 12:27:27;;;;;;;0.82;0.80;;;26.60;72.90;;;;;;5148120;27;27441;-61
2021/07/14 12:30:16;;;;;;;1.67;0.60;;;26.60;72.60;;;;;;5148056;27;27388;-62
2021/07/14 12:33:02;;;;;;;0.38;0.38;;;26.70;71.90;;;;;;5148741;27;27463;-61
2021/07/14 12:35:47;;;;;;;1.08;0.70;;;26.80;71.20;;;;;;5148403;27;27486;-61
2021/07/14 12:38:31;;;;;;;1.42;0.50;;;26.90;71.10;;;;;;5119025;27;27490;-61
2021/07/14 12:41:16;;;;;;;1.60;0.68;;;26.90;70.70;;;;;;5147588;27;27426;-61
2021/07/14 12:44:06;;;;;;;1.08;0.60;;;27.00;70.90;;;;;;5147820;27;27994;-61
2021/07/14 12:46:51;;;;;;;0.68;0.63;;;27.00;71.50;;;;;;5148439;27;27410;-61
2021/07/14 12:49:36;;;;;;;2.58;0.70;;;27.10;71.80;;;;;;5146976;27;27642;-61
2021/07/14 12:52:21;;;;;;;2.05;0.80;;;27.20;71.60;;;;;;5148200;27;27456;-61
2021/07/14 12:55:06;;;;;;;2.72;1.00;;;27.30;71.90;;;;;;5148430;27;27855;-61
2021/07/14 12:57:51;;;;;;;3.30;0.88;;;27.30;71.60;;;;;;5166664;27;27487;-61
2021/07/14 13:00:41;;;;;;;1.45;0.70;;;27.40;71.60;;;;;;5190474;27;27365;-61
2021/07/14 13:03:26;;;;;;;0.85;0.60;;;27.40;71.60;;;;;;5189663;27;27633;-60
2021/07/14 13:06:11;;;;;;;1.40;0.60;;;27.40;71.20;;;;;;5189096;27;27550;-61
2021/07/14 13:08:56;;;;;;;0.60;0.60;;;27.30;70.40;;;;;;5189860;27;27521;-61
2021/07/14 13:11:41;;;;;;;0.60;0.60;;;27.30;70.00;;;;;;5156844;27;27292;-61
2021/07/14 13:14:26;;;;;;;0.70;0.70;;;27.20;69.90;;;;;;5174647;27;27322;-61
2021/07/14 13:17:13;;;;;;;2.65;0.80;;;27.10;70.00;;;;;;5171917;27;27948;-61
2021/07/14 13:20:16;;;;;;;0.93;0.75;;;27.00;70.30;;;;;;5187974;27;27441;-61
2021/07/14 13:23:01;;;;;;;1.95;0.80;;;27.00;70.60;;;;;;5186020;27;27448;-61
2021/07/14 13:25:48;;;;;;;0.63;0.60;;;26.90;71.50;;;;;;5190213;27;27626;-61
2021/07/14 13:28:35;;;;;;;2.05;1.25;;;26.90;71.00;;;;;;5189586;27;27460;-61
2021/07/14 13:31:32;;;;;;;0.60;0.57;;;26.80;70.90;;;;;;5189033;27;27459;-61
2021/07/14 13:34:17;;;;;;;2.95;0.80;;;26.80;70.40;;;;;;5189692;27;27379;-61
2021/07/14 13:37:03;;;;;;;0.85;0.85;;;26.80;69.60;;;;;;5189507;27;27383;-61
2021/07/14 13:40:24;;;;;;;1.35;0.63;;;26.70;69.40;;;;;;5189745;27;27317;-62
2021/07/14 13:43:11;;;;;;;0.60;0.60;;;26.70;69.10;;;;;;5188654;27;27458;-62
2021/07/14 13:46:44;;;;;;;2.50;0.75;;;26.70;69.20;;;;;;5173964;27;27343;-61
2021/07/14 13:49:44;;;;;;;1.83;0.60;;;26.70;69.00;;;;;;5144468;27;27564;-62
2021/07/14 13:52:57;;;;;;;0.75;0.50;;;26.80;69.30;;;;;;5188848;27;27974;-62
2021/07/14 13:56:02;;;;;;;0.88;0.50;;;26.90;69.00;;;;;;5189206;27;27419;-61
2021/07/14 13:58:56;;;;;;;0.60;0.60;;;26.90;69.40;;;;;;5187890;27;27424;-63
2021/07/14 14:02:10;;;;;;;0.40;0.40;;;26.90;69.50;;;;;;5160505;27;27400;-62
2021/07/14 14:05:01;;;;;;;0.88;0.70;;;27.00;69.70;;;;;;5188490;27;27400;-62
2021/07/14 14:07:49;;;;;;;1.05;0.70;;;27.10;69.90;;;;;;5141406;27;27514;-61
2021/07/14 14:10:44;;;;;;;0.70;0.60;;;27.20;71.20;;;;;;5170826;27;27473;-61
2021/07/14 14:13:37;;;;;;;0.60;0.60;;;27.20;71.00;;;;;;5159312;27;27471;-62
2021/07/14 14:16:28;;;;;;;0.73;0.57;;;27.30;70.80;;;;;;5188177;27;27476;-62
2021/07/14 14:19:24;;;;;;;2.95;0.70;;;27.40;69.60;;;;;;5160241;27;27476;-62
2021/07/14 14:22:17;;;;;;;0.60;0.60;;;27.40;69.00;;;;;;5188169;27;27369;-61
2021/07/14 14:25:35;;;;;;;0.52;0.52;;;27.40;68.00;;;;;;5169963;27;27317;-62
2021/07/14 14:28:26;;;;;;;2.75;0.60;;;27.40;66.90;;;;;;5187871;27;27433;-61
2021/07/14 14:31:14;;;;;;;1.40;0.60;;;27.20;66.70;;;;;;5184410;27;27298;-62
2021/07/14 14:34:03;;;;;;;2.92;0.80;;;27.10;66.50;;;;;;5173395;27;27386;-61
2021/07/14 14:36:53;;;;;;;0.65;0.65;;;26.90;67.30;;;;;;5188578;27;27321;-61
2021/07/14 14:39:44;;;;;;;0.57;0.57;;;26.80;67.20;;;;;;5187572;27;27445;-62
2021/07/14 14:42:37;;;;;;;1.40;0.50;;;26.60;67.30;;;;;;5159731;27;27445;-61
2021/07/14 14:45:29;;;;;;;0.65;0.65;;;26.60;67.90;;;;;;5187847;27;27451;-63
2021/07/14 14:48:26;;;;;;;0.80;0.65;;;26.50;68.20;;;;;;5187664;27;27389;-62
2021/07/14 14:51:18;;;;;;;0.50;0.50;;;26.30;68.30;;;;;;5174497;27;27421;-63
2021/07/14 14:54:09;;;;;;;0.63;0.63;;;26.30;67.90;;;;;;5155374;27;27398;-63
2021/07/14 14:57:10;;;;;;;1.08;0.55;;;26.30;67.70;;;;;;5185028;27;27413;-62
2021/07/14 15:00:01;;;;;;;0.70;0.70;;;26.40;67.70;;;;;;5188595;27;27309;-62
2021/07/14 15:02:59;;;;;;;0.50;0.50;;;26.50;68.00;;;;;;5188421;27;27467;-61
2021/07/14 15:05:48;;;;;;;0.50;0.50;;;26.50;67.60;;;;;;5187515;27;27336;-62